createdAt,value
2023-05-09T00:00:56.910Z,95452.00
2023-05-09T00:01:56.926Z,95452.00
2023-05-09T00:02:56.978Z,95448.00
2023-05-09T00:03:56.916Z,95446.00
2023-05-09T00:04:56.917Z,95448.00
2023-05-09T00:05:56.911Z,95448.00
2023-05-09T00:06:56.922Z,95446.00
2023-05-09T00:07:56.937Z,95444.00
2023-05-09T00:08:56.927Z,95442.00
2023-05-09T00:09:56.952Z,95440.00
2023-05-09T00:10:57.050Z,95440.00
2023-05-09T00:11:56.931Z,95438.00
2023-05-09T00:12:57.001Z,95436.00
2023-05-09T00:13:56.936Z,95434.00
2023-05-09T00:14:56.929Z,95432.00
2023-05-09T00:15:56.921Z,95430.00
2023-05-09T00:16:57.004Z,95426.00
2023-05-09T00:17:56.999Z,95426.00
2023-05-09T00:18:56.935Z,95426.00
2023-05-09T00:19:56.931Z,95426.00
2023-05-09T00:20:56.938Z,95426.00
2023-05-09T00:21:56.918Z,95428.00
2023-05-09T00:22:56.929Z,95428.00
2023-05-09T00:23:56.934Z,95428.00
2023-05-09T00:24:56.928Z,95428.00
2023-05-09T00:25:56.921Z,95426.00
2023-05-09T00:26:57.057Z,95422.00
2023-05-09T00:27:56.935Z,95422.00
2023-05-09T00:28:56.924Z,95418.00
2023-05-09T00:29:56.940Z,95418.00
2023-05-09T00:30:56.918Z,95420.00
2023-05-09T00:31:56.947Z,95420.00
2023-05-09T00:32:56.988Z,95418.00
2023-05-09T00:33:56.923Z,95420.00
2023-05-09T00:34:56.930Z,95414.00
2023-05-09T00:35:56.933Z,95418.00
2023-05-09T00:36:56.940Z,95416.00
2023-05-09T00:37:56.935Z,95420.00
2023-05-09T00:38:56.939Z,95416.00
2023-05-09T00:39:56.938Z,95416.00
2023-05-09T00:40:56.944Z,95412.00
2023-05-09T00:41:56.948Z,95410.00
2023-05-09T00:42:57.058Z,95408.00
2023-05-09T00:43:56.935Z,95408.00
2023-05-09T00:44:56.938Z,95406.00
2023-05-09T00:45:56.999Z,95406.00
2023-05-09T00:46:56.933Z,95408.00
2023-05-09T00:47:56.983Z,95408.00
2023-05-09T00:48:56.932Z,95408.00
2023-05-09T00:49:56.965Z,95406.00
2023-05-09T00:50:58.552Z,95406.00
2023-05-09T00:51:57.055Z,95408.00
2023-05-09T00:52:57.077Z,95406.00
2023-05-09T00:53:57.087Z,95399.00
2023-05-09T00:54:57.090Z,95408.00
2023-05-09T00:55:57.103Z,95408.00
2023-05-09T00:56:57.121Z,95406.00
2023-05-09T00:57:57.126Z,95408.00
2023-05-09T00:58:57.260Z,95408.00
2023-05-09T00:59:57.127Z,95406.00
2023-05-09T01:00:57.167Z,95406.00
2023-05-09T01:01:57.158Z,95408.00
2023-05-09T01:02:57.283Z,95408.00
2023-05-09T01:03:57.165Z,95399.00
2023-05-09T01:04:57.168Z,95406.00
2023-05-09T01:05:57.174Z,95406.00
2023-05-09T01:06:57.174Z,95399.00
2023-05-09T01:07:57.175Z,95395.00
2023-05-09T01:08:57.181Z,95395.00
2023-05-09T01:09:57.175Z,95395.00
2023-05-09T01:10:57.185Z,95393.00
2023-05-09T01:11:57.229Z,95391.00
2023-05-09T01:12:57.267Z,95393.00
2023-05-09T01:13:57.211Z,95391.00
2023-05-09T01:14:57.327Z,95393.00
2023-05-09T01:15:57.310Z,95393.00
2023-05-09T01:16:57.219Z,95395.00
2023-05-09T01:17:57.251Z,95393.00
2023-05-09T01:18:57.226Z,95393.00
2023-05-09T01:19:57.235Z,95393.00
2023-05-09T01:20:57.258Z,95397.00
2023-05-09T01:21:57.253Z,95391.00
2023-05-09T01:22:57.260Z,95391.00
2023-05-09T01:23:57.272Z,95389.00
2023-05-09T01:24:57.302Z,95387.00
2023-05-09T01:25:57.306Z,95389.00
2023-05-09T01:26:57.315Z,95389.00
2023-05-09T01:27:57.314Z,95387.00
2023-05-09T01:28:57.314Z,95387.00
2023-05-09T01:29:57.343Z,95387.00
2023-05-09T01:30:57.614Z,95389.00
2023-05-09T01:31:57.346Z,95389.00
2023-05-09T01:32:57.374Z,95391.00
2023-05-09T01:33:57.364Z,95389.00
2023-05-09T01:34:57.356Z,95387.00
2023-05-09T01:35:57.358Z,95385.00
2023-05-09T01:36:57.370Z,95387.00
2023-05-09T01:37:57.368Z,95385.00
2023-05-09T01:38:57.382Z,95385.00
2023-05-09T01:39:57.384Z,95385.00
2023-05-09T01:40:57.395Z,95383.00
2023-05-09T01:41:57.403Z,95383.00
2023-05-09T01:42:57.417Z,95383.00
2023-05-09T01:43:57.482Z,95383.00
2023-05-09T01:44:57.427Z,95383.00
2023-05-09T01:45:57.446Z,95383.00
2023-05-09T01:46:57.638Z,95383.00
2023-05-09T01:47:57.502Z,95383.00
2023-05-09T01:48:57.453Z,95383.00
2023-05-09T01:49:57.479Z,95383.00
2023-05-09T01:50:57.486Z,95383.00
2023-05-09T01:51:57.518Z,95383.00
2023-05-09T01:52:57.523Z,95381.00
2023-05-09T01:53:57.561Z,95381.00
2023-05-09T01:54:57.555Z,95381.00
2023-05-09T01:55:57.586Z,95381.00
2023-05-09T01:56:57.588Z,95381.00
2023-05-09T01:57:57.627Z,95379.00
2023-05-09T01:58:57.657Z,95377.00
2023-05-09T01:59:57.655Z,95379.00
2023-05-09T02:00:57.708Z,95377.00
2023-05-09T02:01:57.781Z,95375.00
2023-05-09T02:02:57.976Z,95375.00
2023-05-09T02:03:57.808Z,95375.00
2023-05-09T02:04:57.832Z,95375.00
2023-05-09T02:05:57.847Z,95375.00
2023-05-09T02:06:57.882Z,95375.00
2023-05-09T02:07:57.903Z,95373.00
2023-05-09T02:08:57.939Z,95373.00
2023-05-09T02:09:57.962Z,95373.00
2023-05-09T02:10:57.996Z,95371.00
2023-05-09T02:11:58.005Z,95369.00
2023-05-09T02:12:58.063Z,95371.00
2023-05-09T02:13:58.037Z,95371.00
2023-05-09T02:14:58.065Z,95369.00
2023-05-09T02:15:58.072Z,95369.00
2023-05-09T02:16:58.174Z,95365.00
2023-05-09T02:17:58.112Z,95365.00
2023-05-09T02:18:58.274Z,95363.00
2023-05-09T02:19:58.140Z,95361.00
2023-05-09T02:20:58.196Z,95361.00
2023-05-09T02:21:58.186Z,95361.00
2023-05-09T02:22:58.185Z,95361.00
2023-05-09T02:23:58.223Z,95361.00
2023-05-09T02:24:58.243Z,95359.00
2023-05-09T02:25:58.258Z,95361.00
2023-05-09T02:26:58.263Z,95359.00
2023-05-09T02:27:58.285Z,95359.00
2023-05-09T02:28:58.281Z,95359.00
2023-05-09T02:29:58.273Z,95359.00
2023-05-09T02:30:58.277Z,95357.00
2023-05-09T02:31:58.308Z,95357.00
2023-05-09T02:32:58.339Z,95357.00
2023-05-09T02:33:58.339Z,95357.00
2023-05-09T02:34:58.499Z,95355.00
2023-05-09T02:35:58.347Z,95357.00
2023-05-09T02:36:58.349Z,95355.00
2023-05-09T02:37:58.365Z,95357.00
2023-05-09T02:38:58.437Z,95355.00
2023-05-09T02:39:58.374Z,95357.00
2023-05-09T02:40:58.376Z,95355.00
2023-05-09T02:41:58.382Z,95355.00
2023-05-09T02:42:58.374Z,95353.00
2023-05-09T02:43:58.394Z,95352.00
2023-05-09T02:44:58.404Z,95350.00
2023-05-09T02:45:58.429Z,95350.00
2023-05-09T02:46:58.404Z,95350.00
2023-05-09T02:47:58.478Z,95348.00
2023-05-09T02:48:58.415Z,95348.00
2023-05-09T02:49:58.411Z,95346.00
2023-05-09T02:50:58.551Z,95348.00
2023-05-09T02:51:58.444Z,95344.00
2023-05-09T02:52:58.441Z,95342.00
2023-05-09T02:53:58.473Z,95346.00
2023-05-09T02:54:58.490Z,95344.00
2023-05-09T02:55:58.495Z,95340.00
2023-05-09T02:56:58.528Z,95340.00
2023-05-09T02:58:12.022Z,95342.00
2023-05-09T02:58:58.559Z,95340.00
2023-05-09T02:59:58.545Z,95338.00
2023-05-09T03:00:58.546Z,95338.00
2023-05-09T03:01:58.555Z,95338.00
2023-05-09T03:02:58.613Z,95336.00
2023-05-09T03:03:58.772Z,95336.00
2023-05-09T03:04:58.580Z,95336.00
2023-05-09T03:05:58.587Z,95338.00
2023-05-09T03:06:58.706Z,95338.00
2023-05-09T03:07:58.597Z,95338.00
2023-05-09T03:08:58.607Z,95338.00
2023-05-09T03:09:58.596Z,95338.00
2023-05-09T03:10:58.589Z,95338.00
2023-05-09T03:11:58.590Z,95340.00
2023-05-09T03:12:58.633Z,95336.00
2023-05-09T03:13:58.603Z,95338.00
2023-05-09T03:14:58.594Z,95338.00
2023-05-09T03:15:58.638Z,95338.00
2023-05-09T03:16:58.629Z,95340.00
2023-05-09T03:17:58.615Z,95338.00
2023-05-09T03:18:58.609Z,95340.00
2023-05-09T03:19:58.625Z,95342.00
2023-05-09T03:20:58.613Z,95342.00
2023-05-09T03:21:58.621Z,95342.00
2023-05-09T03:22:58.741Z,95340.00
2023-05-09T03:23:58.635Z,95342.00
2023-05-09T03:24:58.695Z,95344.00
2023-05-09T03:25:58.646Z,95344.00
2023-05-09T03:26:58.639Z,95344.00
2023-05-09T03:27:58.649Z,95342.00
2023-05-09T03:28:58.665Z,95342.00
2023-05-09T03:29:58.659Z,95340.00
2023-05-09T03:30:58.724Z,95340.00
2023-05-09T03:31:58.664Z,95336.00
2023-05-09T03:32:58.726Z,95338.00
2023-05-09T03:33:58.678Z,95338.00
2023-05-09T03:34:58.682Z,95338.00
2023-05-09T03:35:58.684Z,95338.00
2023-05-09T03:36:58.685Z,95334.00
2023-05-09T03:37:58.691Z,95338.00
2023-05-09T03:38:58.821Z,95338.00
2023-05-09T03:39:58.711Z,95336.00
2023-05-09T03:40:58.695Z,95332.00
2023-05-09T03:41:58.695Z,95332.00
2023-05-09T03:42:58.703Z,95332.00
2023-05-09T03:43:58.715Z,95328.00
2023-05-09T03:44:58.707Z,95328.00
2023-05-09T03:45:58.710Z,95330.00
2023-05-09T03:46:59.565Z,95328.00
2023-05-09T03:47:58.808Z,95326.00
2023-05-09T03:48:58.735Z,95324.00
2023-05-09T03:49:58.737Z,95324.00
2023-05-09T03:50:58.729Z,95324.00
2023-05-09T03:51:58.730Z,95324.00
2023-05-09T03:52:58.739Z,95324.00
2023-05-09T03:53:58.752Z,95324.00
2023-05-09T03:54:58.871Z,95324.00
2023-05-09T03:55:58.748Z,95328.00
2023-05-09T03:56:58.757Z,95328.00
2023-05-09T03:57:58.765Z,95328.00
2023-05-09T03:58:58.757Z,95328.00
2023-05-09T03:59:58.774Z,95328.00
2023-05-09T04:00:58.775Z,95328.00
2023-05-09T04:01:58.803Z,95328.00
2023-05-09T04:02:58.857Z,95330.00
2023-05-09T04:03:58.786Z,95330.00
2023-05-09T04:04:58.775Z,95332.00
2023-05-09T04:05:58.768Z,95332.00
2023-05-09T04:06:58.764Z,95334.00
2023-05-09T04:07:58.758Z,95332.00
2023-05-09T04:08:58.773Z,95332.00
2023-05-09T04:09:58.766Z,95332.00
2023-05-09T04:10:58.888Z,95330.00
2023-05-09T04:11:58.758Z,95332.00
2023-05-09T04:12:58.789Z,95332.00
2023-05-09T04:13:58.772Z,95332.00
2023-05-09T04:14:58.775Z,95332.00
2023-05-09T04:15:58.780Z,95332.00
2023-05-09T04:16:58.801Z,95332.00
2023-05-09T04:17:58.811Z,95332.00
2023-05-09T04:18:58.792Z,95332.00
2023-05-09T04:19:58.785Z,95334.00
2023-05-09T04:20:58.776Z,95334.00
2023-05-09T04:21:58.788Z,95334.00
2023-05-09T04:22:58.808Z,95336.00
2023-05-09T04:23:58.805Z,95336.00
2023-05-09T04:24:58.783Z,95336.00
2023-05-09T04:25:58.787Z,95334.00
2023-05-09T04:26:58.914Z,95338.00
2023-05-09T04:27:58.797Z,95336.00
2023-05-09T04:28:58.795Z,95334.00
2023-05-09T04:29:58.806Z,95336.00
2023-05-09T04:30:58.884Z,95334.00
2023-05-09T04:31:58.927Z,95332.00
2023-05-09T04:32:58.943Z,95332.00
2023-05-09T04:33:58.808Z,95332.00
2023-05-09T04:34:58.815Z,95332.00
2023-05-09T04:35:58.812Z,95332.00
2023-05-09T04:36:59.135Z,95332.00
2023-05-09T04:37:58.799Z,95332.00
2023-05-09T04:38:58.802Z,95334.00
2023-05-09T04:39:58.814Z,95332.00
2023-05-09T04:40:58.810Z,95332.00
2023-05-09T04:41:58.811Z,95332.00
2023-05-09T04:42:58.977Z,95336.00
2023-05-09T04:43:58.829Z,95336.00
2023-05-09T04:44:58.851Z,95338.00
2023-05-09T04:45:58.930Z,95338.00
2023-05-09T04:46:58.873Z,95338.00
2023-05-09T04:47:58.963Z,95340.00
2023-05-09T04:48:58.870Z,95342.00
2023-05-09T04:49:58.876Z,95340.00
2023-05-09T04:50:58.878Z,95340.00
2023-05-09T04:51:58.899Z,95340.00
2023-05-09T04:52:58.896Z,95338.00
2023-05-09T04:53:58.906Z,95336.00
2023-05-09T04:54:58.921Z,95338.00
2023-05-09T04:55:58.925Z,95336.00
2023-05-09T04:57:09.876Z,95332.00
2023-05-09T04:57:58.932Z,95328.00
2023-05-09T04:58:59.053Z,95326.00
2023-05-09T04:59:58.937Z,95328.00
2023-05-09T05:00:58.917Z,95326.00
2023-05-09T05:01:59.018Z,95324.00
2023-05-09T05:02:58.946Z,95322.00
2023-05-09T05:03:58.905Z,95322.00
2023-05-09T05:05:18.026Z,95322.00
2023-05-09T05:05:58.902Z,95320.00
2023-05-09T05:06:58.896Z,95320.00
2023-05-09T05:07:58.894Z,95322.00
2023-05-09T05:08:58.885Z,95322.00
2023-05-09T05:09:58.904Z,95322.00
2023-05-09T05:10:58.910Z,95320.00
2023-05-09T05:12:02.401Z,95320.00
2023-05-09T05:12:58.963Z,95322.00
2023-05-09T05:13:58.890Z,95324.00
2023-05-09T05:14:58.998Z,95322.00
2023-05-09T05:15:58.994Z,95322.00
2023-05-09T05:16:58.891Z,95322.00
2023-05-09T05:17:58.920Z,95324.00
2023-05-09T05:18:59.293Z,95316.00
2023-05-09T05:19:58.864Z,95320.00
2023-05-09T05:20:58.913Z,95320.00
2023-05-09T05:21:58.862Z,95322.00
2023-05-09T05:22:59.305Z,95318.00
2023-05-09T05:23:58.861Z,95314.00
2023-05-09T05:24:58.865Z,95312.00
2023-05-09T05:25:58.874Z,95312.00
2023-05-09T05:26:58.879Z,95310.00
2023-05-09T05:27:59.299Z,95310.00
2023-05-09T05:28:58.891Z,95308.00
2023-05-09T05:29:58.900Z,95310.00
2023-05-09T05:30:59.000Z,95308.00
2023-05-09T05:31:59.321Z,95312.00
2023-05-09T05:32:58.906Z,95310.00
2023-05-09T05:33:58.870Z,95312.00
2023-05-09T05:34:58.867Z,95312.00
2023-05-09T05:35:58.898Z,95314.00
2023-05-09T05:36:58.972Z,95314.00
2023-05-09T05:37:59.309Z,95314.00
2023-05-09T05:38:58.905Z,95312.00
2023-05-09T05:39:58.874Z,95314.00
2023-05-09T05:41:02.106Z,95314.00
2023-05-09T05:41:58.936Z,95318.00
2023-05-09T05:42:59.300Z,95316.00
2023-05-09T05:44:14.493Z,95314.00
2023-05-09T05:44:58.877Z,95314.00
2023-05-09T05:45:58.911Z,95316.00
2023-05-09T05:46:59.055Z,95314.00
2023-05-09T05:47:59.357Z,95314.00
2023-05-09T05:48:58.879Z,95314.00
2023-05-09T05:49:58.884Z,95312.00
2023-05-09T05:50:58.870Z,95312.00
2023-05-09T05:51:58.880Z,95312.00
2023-05-09T12:42:16.430Z,94691.00
2023-05-09T12:43:17.117Z,94687.00
2023-05-09T12:44:17.082Z,94689.00
2023-05-09T12:45:17.589Z,94687.00
2023-05-09T12:46:17.128Z,94685.00
2023-05-09T12:47:17.113Z,94685.00
2023-05-09T12:48:17.034Z,94681.00
2023-05-09T12:49:17.024Z,94679.00
2023-05-09T12:50:17.297Z,94679.00
2023-05-09T12:51:17.000Z,94677.00
2023-05-09T12:52:16.997Z,94677.00
2023-05-09T12:53:16.976Z,94671.00
2023-05-09T12:54:16.968Z,94669.00
2023-05-09T12:55:17.056Z,94669.00
2023-05-09T12:56:16.978Z,94667.00
2023-05-09T12:57:16.960Z,94667.00
2023-05-09T12:58:17.127Z,94660.00
2023-05-09T12:59:16.946Z,94663.00
2023-05-09T13:00:17.317Z,94662.00
2023-05-09T13:01:16.970Z,94660.00
2023-05-09T13:02:16.985Z,94660.00
2023-05-09T13:03:16.967Z,94660.00
2023-05-09T13:04:16.931Z,94658.00
2023-05-09T13:05:17.142Z,94652.00
2023-05-09T13:06:16.947Z,94652.00
2023-05-09T13:07:17.002Z,94648.00
2023-05-09T13:08:17.024Z,94646.00
2023-05-09T13:09:17.060Z,94642.00
2023-05-09T13:10:17.117Z,94642.00
2023-05-09T13:11:17.333Z,94640.00
2023-05-09T13:12:17.317Z,94636.00
2023-05-09T13:13:18.199Z,94636.00
2023-05-09T13:14:17.244Z,94628.00
2023-05-09T13:15:17.669Z,94626.00
2023-05-09T13:16:20.353Z,94624.00
2023-05-09T13:17:17.128Z,94620.00
2023-05-09T13:18:17.109Z,94618.00
2023-05-09T13:19:17.131Z,94613.00
2023-05-09T13:20:17.334Z,94613.00
2023-05-09T13:21:17.307Z,94609.00
2023-05-09T13:22:17.065Z,94607.00
2023-05-09T13:23:17.053Z,94605.00
2023-05-09T13:24:17.038Z,94605.00
2023-05-09T13:25:17.060Z,94603.00
2023-05-09T13:26:17.025Z,94599.00
2023-05-09T13:27:17.029Z,94599.00
2023-05-09T13:28:17.032Z,94601.00
2023-05-09T13:29:16.995Z,94597.00
2023-05-09T13:30:17.605Z,94593.00
2023-05-09T13:31:17.451Z,94593.00
2023-05-09T13:32:16.988Z,94587.00
2023-05-09T13:33:25.916Z,94589.00
2023-05-09T13:34:16.926Z,94589.00
2023-05-09T13:35:16.931Z,94589.00
2023-05-09T13:36:16.909Z,94583.00
2023-05-09T13:37:16.902Z,94585.00
2023-05-09T13:38:17.326Z,94583.00
2023-05-09T13:39:16.912Z,94581.00
2023-05-09T13:40:17.584Z,94581.00
2023-05-09T13:41:17.329Z,94581.00
2023-05-09T13:42:18.984Z,94579.00
2023-05-09T13:43:16.859Z,94575.00
2023-05-09T13:44:16.853Z,94577.00
2023-05-09T13:45:17.445Z,94571.00
2023-05-09T13:46:17.053Z,94569.00
2023-05-09T13:47:16.846Z,94567.00
2023-05-09T13:48:16.843Z,94562.00
2023-05-09T13:49:16.840Z,94567.00
2023-05-09T13:50:17.049Z,94566.00
2023-05-09T13:51:16.825Z,94562.00
2023-05-09T13:52:16.835Z,94564.00
2023-05-09T13:53:16.836Z,94560.00
2023-05-09T13:54:16.808Z,94560.00
2023-05-09T13:55:16.828Z,94558.00
2023-05-09T13:56:16.801Z,94560.00
2023-05-09T13:57:16.801Z,94556.00
2023-05-09T13:58:16.808Z,94560.00
2023-05-09T13:59:16.806Z,94550.00
2023-05-09T14:00:17.146Z,94550.00
2023-05-09T14:01:16.826Z,94550.00
2023-05-09T14:02:16.966Z,94546.00
2023-05-09T14:03:16.847Z,94544.00
2023-05-09T14:04:16.906Z,94542.00
2023-05-09T14:05:16.976Z,94542.00
2023-05-09T14:06:16.949Z,94542.00
2023-05-09T14:07:17.014Z,94540.00
2023-05-09T14:08:17.058Z,94544.00
2023-05-09T14:09:17.107Z,94536.00
2023-05-09T14:10:17.368Z,94536.00
2023-05-09T14:11:17.241Z,94532.00
2023-05-09T14:12:17.292Z,94530.00
2023-05-09T14:13:17.413Z,94528.00
2023-05-09T14:14:17.374Z,94526.00
2023-05-09T14:15:17.410Z,94528.00
2023-05-09T14:16:17.520Z,94522.00
2023-05-09T14:17:17.495Z,94524.00
2023-05-09T14:18:20.028Z,94519.00
2023-05-09T14:19:17.535Z,94519.00
2023-05-09T14:20:17.677Z,94515.00
2023-05-09T14:21:17.506Z,94515.00
2023-05-09T14:22:17.492Z,94513.00
2023-05-09T14:23:17.512Z,94513.00
2023-05-09T14:24:17.523Z,94513.00
2023-05-09T14:25:17.500Z,94511.00
2023-05-09T14:26:17.487Z,94511.00
2023-05-09T14:27:17.492Z,94509.00
2023-05-09T14:28:17.511Z,94505.00
2023-05-09T14:29:17.491Z,94505.00
2023-05-09T14:30:17.620Z,94505.00
2023-05-09T14:31:17.553Z,94503.00
2023-05-09T14:32:17.484Z,94503.00
2023-05-09T14:33:17.522Z,94503.00
2023-05-09T14:34:17.612Z,94503.00
2023-05-09T14:35:17.508Z,94499.00
2023-05-09T14:36:17.851Z,94495.00
2023-05-09T14:37:17.484Z,94493.00
2023-05-09T14:38:17.483Z,94491.00
2023-05-09T14:39:17.473Z,94489.00
2023-05-09T14:40:18.043Z,94487.00
2023-05-09T14:41:18.595Z,94487.00
2023-05-09T14:42:17.464Z,94491.00
2023-05-09T14:43:17.471Z,94489.00
2023-05-09T14:44:17.472Z,94487.00
2023-05-09T14:45:17.473Z,94489.00
2023-05-09T14:46:17.473Z,94485.00
2023-05-09T14:47:17.447Z,94487.00
2023-05-09T14:48:17.488Z,94485.00
2023-05-09T14:49:17.450Z,94483.00
2023-05-09T14:50:17.755Z,94483.00
2023-05-09T14:51:17.466Z,94479.00
2023-05-09T14:52:17.448Z,94481.00
2023-05-09T14:53:17.448Z,94479.00
2023-05-09T14:54:17.448Z,94481.00
2023-05-09T14:55:17.447Z,94479.00
2023-05-09T14:56:17.441Z,94477.00
2023-05-09T14:57:17.448Z,94477.00
2023-05-09T14:58:17.438Z,94471.00
2023-05-09T14:59:18.351Z,94473.00
2023-05-09T15:00:21.764Z,94471.00
2023-05-09T15:01:17.907Z,94471.00
2023-05-09T15:02:17.449Z,94475.00
2023-05-09T15:03:17.429Z,94471.00
2023-05-09T15:04:17.455Z,94469.00
2023-05-09T15:05:17.439Z,94473.00
2023-05-09T15:06:17.567Z,94467.00
2023-05-09T15:07:17.438Z,94467.00
2023-05-09T15:08:17.435Z,94465.00
2023-05-09T15:09:17.432Z,94464.00
2023-05-09T15:10:18.080Z,94465.00
2023-05-09T15:11:17.430Z,94464.00
2023-05-09T15:12:17.431Z,94464.00
2023-05-09T15:13:17.445Z,94462.00
2023-05-09T15:14:17.437Z,94460.00
2023-05-09T15:15:17.451Z,94460.00
2023-05-09T15:16:17.459Z,94456.00
2023-05-09T15:17:17.433Z,94456.00
2023-05-09T15:18:17.441Z,94456.00
2023-05-09T15:19:17.442Z,94452.00
2023-05-09T15:20:17.858Z,94446.00
2023-05-09T15:21:17.458Z,94448.00
2023-05-09T15:22:17.540Z,94446.00
2023-05-09T15:23:17.452Z,94446.00
2023-05-09T15:24:17.401Z,94446.00
2023-05-09T15:25:17.440Z,94444.00
2023-05-09T15:26:17.397Z,94440.00
2023-05-09T15:27:17.382Z,94440.00
2023-05-09T15:28:17.388Z,94440.00
2023-05-09T15:29:17.389Z,94440.00
2023-05-09T15:30:17.519Z,94440.00
2023-05-09T15:31:17.440Z,94440.00
2023-05-09T15:32:17.393Z,94438.00
2023-05-09T15:33:17.395Z,94436.00
2023-05-09T15:34:17.392Z,94438.00
2023-05-09T15:35:17.395Z,94436.00
2023-05-09T15:36:17.403Z,94436.00
2023-05-09T15:37:17.397Z,94436.00
2023-05-09T15:38:17.533Z,94432.00
2023-05-09T15:39:17.406Z,94432.00
2023-05-09T15:40:17.613Z,94432.00
2023-05-09T15:41:17.420Z,94430.00
2023-05-09T15:42:17.426Z,94430.00
2023-05-09T15:43:17.427Z,94428.00
2023-05-09T15:44:17.438Z,94426.00
2023-05-09T15:45:18.373Z,94424.00
2023-05-09T15:46:17.562Z,94426.00
2023-05-09T15:47:17.451Z,94424.00
2023-05-09T15:48:17.459Z,94426.00
2023-05-09T15:49:17.465Z,94426.00
2023-05-09T15:50:17.679Z,94424.00
2023-05-09T15:51:17.480Z,94424.00
2023-05-09T15:52:17.495Z,94420.00
2023-05-09T15:53:17.504Z,94422.00
2023-05-09T15:54:17.639Z,94422.00
2023-05-09T15:55:17.551Z,94418.00
2023-05-09T15:56:17.525Z,94418.00
2023-05-09T15:57:17.549Z,94418.00
2023-05-09T15:58:17.545Z,94417.00
2023-05-09T15:59:17.544Z,94415.00
2023-05-09T16:00:17.832Z,94415.00
2023-05-09T16:01:17.589Z,94415.00
2023-05-09T16:02:17.614Z,94415.00
2023-05-09T16:03:17.665Z,94413.00
2023-05-09T16:04:17.565Z,94415.00
2023-05-09T16:05:17.574Z,94413.00
2023-05-09T16:06:17.567Z,94413.00
2023-05-09T16:07:17.566Z,94409.00
2023-05-09T16:08:17.563Z,94411.00
2023-05-09T16:09:17.574Z,94411.00
2023-05-09T16:10:17.881Z,94409.00
2023-05-09T16:11:17.573Z,94411.00
2023-05-09T16:12:17.577Z,94409.00
2023-05-09T16:13:17.756Z,94407.00
2023-05-09T16:14:18.004Z,94407.00
2023-05-09T16:15:17.583Z,94403.00
2023-05-09T16:16:17.614Z,94403.00
2023-05-09T16:17:17.599Z,94405.00
2023-05-09T16:18:17.597Z,94401.00
2023-05-09T16:19:17.599Z,94403.00
2023-05-09T16:20:17.827Z,94399.00
2023-05-09T16:21:17.609Z,94397.00
2023-05-09T16:22:17.645Z,94401.00
2023-05-09T16:23:17.613Z,94399.00
2023-05-09T16:24:17.605Z,94399.00
2023-05-09T16:25:17.648Z,94399.00
2023-05-09T16:26:17.737Z,94397.00
2023-05-09T16:27:17.639Z,94397.00
2023-05-09T16:28:17.644Z,94399.00
2023-05-09T16:29:17.657Z,94401.00
2023-05-09T16:30:17.892Z,94401.00
2023-05-09T16:31:17.810Z,94401.00
2023-05-09T16:32:17.735Z,94397.00
2023-05-09T16:33:17.750Z,94399.00
2023-05-09T16:34:17.778Z,94399.00
2023-05-09T16:35:17.790Z,94401.00
2023-05-09T16:36:17.856Z,94399.00
2023-05-09T16:37:17.842Z,94399.00
2023-05-09T16:38:17.876Z,94399.00
2023-05-09T16:39:17.894Z,94403.00
2023-05-09T16:40:18.151Z,94401.00
2023-05-09T16:41:17.932Z,94399.00
2023-05-09T16:42:17.975Z,94399.00
2023-05-09T16:43:17.970Z,94395.00
2023-05-09T16:44:17.995Z,94399.00
2023-05-09T16:45:18.017Z,94393.00
2023-05-09T16:46:18.105Z,94391.00
2023-05-09T16:47:18.174Z,94393.00
2023-05-09T16:48:18.081Z,94395.00
2023-05-09T16:49:18.122Z,94395.00
2023-05-09T16:50:18.209Z,94391.00
2023-05-09T16:51:18.153Z,94389.00
2023-05-09T16:52:18.166Z,94395.00
2023-05-09T16:53:18.191Z,94389.00
2023-05-09T16:54:18.212Z,94389.00
2023-05-09T16:55:18.244Z,94387.00
2023-05-09T16:56:18.269Z,94385.00
2023-05-09T16:57:18.290Z,94385.00
2023-05-09T16:58:18.434Z,94389.00
2023-05-09T16:59:18.339Z,94391.00
2023-05-09T17:00:18.366Z,94389.00
2023-05-09T17:01:18.438Z,94391.00
2023-05-09T17:02:18.423Z,94387.00
2023-05-09T17:03:18.435Z,94391.00
2023-05-09T17:04:18.542Z,94387.00
2023-05-09T17:05:18.489Z,94387.00
2023-05-09T17:06:18.528Z,94391.00
2023-05-09T17:07:18.545Z,94387.00
2023-05-09T17:08:18.582Z,94387.00
2023-05-09T17:09:18.625Z,94387.00
2023-05-09T17:10:18.725Z,94385.00
2023-05-09T17:11:18.667Z,94387.00
2023-05-09T17:12:18.697Z,94387.00
2023-05-09T17:13:18.763Z,94387.00
2023-05-09T17:14:18.873Z,94387.00
2023-05-09T17:15:18.787Z,94391.00
2023-05-09T17:16:18.849Z,94389.00
2023-05-09T17:17:18.875Z,94387.00
2023-05-09T17:18:29.254Z,94389.00
2023-05-09T17:19:18.856Z,94389.00
2023-05-09T17:20:18.841Z,94389.00
2023-05-09T17:21:18.875Z,94385.00
2023-05-09T17:22:18.875Z,94389.00
2023-05-09T17:23:18.876Z,94387.00
2023-05-09T17:24:18.869Z,94383.00
2023-05-09T17:25:18.870Z,94381.00
2023-05-09T17:26:18.898Z,94381.00
2023-05-09T17:27:18.892Z,94379.00
2023-05-09T17:28:18.896Z,94379.00
2023-05-09T17:29:18.899Z,94372.00
2023-05-09T17:30:21.322Z,94372.00
2023-05-09T17:31:19.006Z,94372.00
2023-05-09T17:32:18.926Z,94368.00
2023-05-09T17:33:18.931Z,94368.00
2023-05-09T17:34:18.938Z,94368.00
2023-05-09T17:35:18.949Z,94370.00
2023-05-09T17:36:18.963Z,94370.00
2023-05-09T17:37:18.974Z,94368.00
2023-05-09T17:38:18.962Z,94366.00
2023-05-09T17:39:18.972Z,94366.00
2023-05-09T17:40:18.974Z,94364.00
2023-05-09T17:41:18.990Z,94364.00
2023-05-09T17:42:18.989Z,94362.00
2023-05-09T17:44:17.985Z,94358.00
2023-05-09T17:45:19.015Z,94358.00
2023-05-09T17:46:19.149Z,94358.00
2023-05-09T17:47:19.002Z,94358.00
2023-05-09T17:48:19.025Z,94360.00
2023-05-09T17:49:19.027Z,94356.00
2023-05-09T17:50:19.007Z,94356.00
2023-05-09T17:51:19.050Z,94354.00
2023-05-09T17:52:19.054Z,94354.00
2023-05-09T17:53:19.095Z,94354.00
2023-05-09T17:54:19.113Z,94352.00
2023-05-09T17:55:19.144Z,94352.00
2023-05-09T17:56:19.188Z,94348.00
2023-05-09T17:57:19.222Z,94348.00
2023-05-09T17:58:19.248Z,94346.00
2023-05-09T17:59:19.280Z,94348.00
2023-05-09T18:00:19.315Z,94348.00
2023-05-09T18:01:19.352Z,94346.00
2023-05-09T18:02:19.507Z,94350.00
2023-05-09T18:03:19.533Z,94352.00
2023-05-09T18:04:19.445Z,94350.00
2023-05-09T18:05:19.493Z,94350.00
2023-05-09T18:06:19.533Z,94356.00
2023-05-09T18:07:19.571Z,94354.00
2023-05-09T18:08:19.599Z,94354.00
2023-05-09T18:09:19.642Z,94352.00
2023-05-09T18:10:19.683Z,94352.00
2023-05-09T18:11:19.712Z,94354.00
2023-05-09T18:12:19.763Z,94354.00
2023-05-09T18:13:19.855Z,94350.00
2023-05-09T18:14:19.836Z,94354.00
2023-05-09T18:15:19.893Z,94352.00
2023-05-09T18:16:19.978Z,94350.00
2023-05-09T18:17:19.959Z,94348.00
2023-05-09T18:18:20.171Z,94352.00
2023-05-09T18:19:20.044Z,94352.00
2023-05-09T18:20:20.081Z,94352.00
2023-05-09T18:21:20.118Z,94352.00
2023-05-09T18:22:20.169Z,94354.00
2023-05-09T18:23:20.215Z,94352.00
2023-05-09T18:24:20.231Z,94352.00
2023-05-09T18:25:20.278Z,94352.00
2023-05-09T18:26:20.312Z,94352.00
2023-05-09T18:27:20.354Z,94352.00
2023-05-09T18:28:20.389Z,94354.00
2023-05-09T18:29:20.435Z,94348.00
2023-05-09T18:30:20.470Z,94348.00
2023-05-09T18:31:20.534Z,94350.00
2023-05-09T18:32:20.562Z,94348.00
2023-05-09T18:33:20.604Z,94348.00
2023-05-09T18:34:20.766Z,94350.00
2023-05-09T18:35:20.692Z,94350.00